sensor_id;sensor_type;location;lat;lon;timestamp;temperature;humidity
9987;DHT22;5033;46.310;11.214;2024-03-23T00:54:17;11.20;99.90
9987;DHT22;5033;46.310;11.214;2024-03-23T00:56:43;11.10;99.90
9987;DHT22;5033;46.310;11.214;2024-03-23T00:59:10;11.10;99.90
9987;DHT22;5033;46.310;11.214;2024-03-23T01:01:37;11.10;99.90
9987;DHT22;5033;46.310;11.214;2024-03-23T01:04:04;11.10;99.90
9987;DHT22;5033;46.310;11.214;2024-03-23T01:06:30;11.10;99.90
9987;DHT22;5033;46.310;11.214;2024-03-23T01:08:57;11.10;99.90
9987;DHT22;5033;46.310;11.214;2024-03-23T01:11:24;11.10;99.90
9987;DHT22;5033;46.310;11.214;2024-03-23T01:13:53;11.10;99.90
9987;DHT22;5033;46.310;11.214;2024-03-23T01:16:21;11.00;99.90
9987;DHT22;5033;46.310;11.214;2024-03-23T01:18:48;10.90;99.90
9987;DHT22;5033;46.310;11.214;2024-03-23T01:21:14;10.90;99.90
9987;DHT22;5033;46.310;11.214;2024-03-23T01:23:41;10.90;99.90
9987;DHT22;5033;46.310;11.214;2024-03-23T01:26:07;10.90;99.90
9987;DHT22;5033;46.310;11.214;2024-03-23T01:28:36;10.90;99.90
9987;DHT22;5033;46.310;11.214;2024-03-23T01:31:02;10.90;99.90
9987;DHT22;5033;46.310;11.214;2024-03-23T01:33:29;11.00;99.90
9987;DHT22;5033;46.310;11.214;2024-03-23T01:35:55;10.90;99.90
9987;DHT22;5033;46.310;11.214;2024-03-23T01:38:22;11.00;99.90
9987;DHT22;5033;46.310;11.214;2024-03-23T01:40:48;10.90;99.90
9987;DHT22;5033;46.310;11.214;2024-03-23T01:43:15;11.00;99.90
9987;DHT22;5033;46.310;11.214;2024-03-23T01:45:42;10.90;99.90
9987;DHT22;5033;46.310;11.214;2024-03-23T01:48:09;10.90;99.90
9987;DHT22;5033;46.310;11.214;2024-03-23T01:50:38;10.90;99.90
9987;DHT22;5033;46.310;11.214;2024-03-23T01:53:05;10.90;99.90
9987;DHT22;5033;46.310;11.214;2024-03-23T01:55:32;10.90;99.90
9987;DHT22;5033;46.310;11.214;2024-03-23T01:57:59;10.80;99.90
9987;DHT22;5033;46.310;11.214;2024-03-23T02:00:25;10.80;99.90
9987;DHT22;5033;46.310;11.214;2024-03-23T02:02:54;10.80;99.90
9987;DHT22;5033;46.310;11.214;2024-03-23T02:05:21;10.70;99.90
9987;DHT22;5033;46.310;11.214;2024-03-23T02:07:48;10.70;99.90
9987;DHT22;5033;46.310;11.214;2024-03-23T02:10:15;10.70;99.90
9987;DHT22;5033;46.310;11.214;2024-03-23T02:12:42;10.70;99.90
9987;DHT22;5033;46.310;11.214;2024-03-23T02:15:08;10.70;99.90
9987;DHT22;5033;46.310;11.214;2024-03-23T02:17:36;10.70;99.90
9987;DHT22;5033;46.310;11.214;2024-03-23T02:20:03;10.70;99.90
9987;DHT22;5033;46.310;11.214;2024-03-23T02:22:36;10.70;99.90
9987;DHT22;5033;46.310;11.214;2024-03-23T02:25:05;10.60;99.90
9987;DHT22;5033;46.310;11.214;2024-03-23T02:27:32;10.50;99.90
9987;DHT22;5033;46.310;11.214;2024-03-23T02:29:58;10.50;99.90
9987;DHT22;5033;46.310;11.214;2024-03-23T02:32:25;10.50;99.90
9987;DHT22;5033;46.310;11.214;2024-03-23T02:34:51;10.50;99.90
9987;DHT22;5033;46.310;11.214;2024-03-23T02:37:18;10.40;99.90
9987;DHT22;5033;46.310;11.214;2024-03-23T02:39:44;10.40;99.90
9987;DHT22;5033;46.310;11.214;2024-03-23T02:42:12;10.40;99.90
9987;DHT22;5033;46.310;11.214;2024-03-23T02:44:38;10.40;99.90
9987;DHT22;5033;46.310;11.214;2024-03-23T02:47:06;10.40;99.90
9987;DHT22;5033;46.310;11.214;2024-03-23T02:49:32;10.40;99.90
9987;DHT22;5033;46.310;11.214;2024-03-23T02:51:59;10.40;99.90
9987;DHT22;5033;46.310;11.214;2024-03-23T02:54:24;10.30;99.90
9987;DHT22;5033;46.310;11.214;2024-03-23T02:56:51;10.30;99.90
9987;DHT22;5033;46.310;11.214;2024-03-23T02:59:19;10.30;99.90
9987;DHT22;5033;46.310;11.214;2024-03-23T03:01:46;10.20;99.90
9987;DHT22;5033;46.310;11.214;2024-03-23T03:04:11;10.20;99.90
9987;DHT22;5033;46.310;11.214;2024-03-23T03:06:38;10.20;99.90
9987;DHT22;5033;46.310;11.214;2024-03-23T03:09:04;10.20;99.90
9987;DHT22;5033;46.310;11.214;2024-03-23T03:11:32;10.10;99.90
9987;DHT22;5033;46.310;11.214;2024-03-23T03:13:58;10.10;99.90
9987;DHT22;5033;46.310;11.214;2024-03-23T03:16:27;10.10;99.90
9987;DHT22;5033;46.310;11.214;2024-03-23T03:18:53;10.10;99.90
9987;DHT22;5033;46.310;11.214;2024-03-23T03:21:20;10.10;99.90
9987;DHT22;5033;46.310;11.214;2024-03-23T03:23:46;10.00;99.90
9987;DHT22;5033;46.310;11.214;2024-03-23T03:26:15;10.00;99.90
9987;DHT22;5033;46.310;11.214;2024-03-23T03:28:42;10.00;99.90
9987;DHT22;5033;46.310;11.214;2024-03-23T03:31:09;10.00;99.90
9987;DHT22;5033;46.310;11.214;2024-03-23T03:33:37;10.00;99.90
9987;DHT22;5033;46.310;11.214;2024-03-23T03:36:04;10.00;99.90
9987;DHT22;5033;46.310;11.214;2024-03-23T03:38:30;10.00;99.90
9987;DHT22;5033;46.310;11.214;2024-03-23T03:40:57;9.90;99.90
9987;DHT22;5033;46.310;11.214;2024-03-23T03:43:24;9.90;99.90
9987;DHT22;5033;46.310;11.214;2024-03-23T03:45:52;9.90;99.90
9987;DHT22;5033;46.310;11.214;2024-03-23T03:48:18;10.00;99.90
9987;DHT22;5033;46.310;11.214;2024-03-23T03:50:46;10.00;99.90
9987;DHT22;5033;46.310;11.214;2024-03-23T03:53:12;10.10;99.90
9987;DHT22;5033;46.310;11.214;2024-03-23T03:55:39;10.10;99.90
9987;DHT22;5033;46.310;11.214;2024-03-23T03:58:05;10.20;99.90
9987;DHT22;5033;46.310;11.214;2024-03-23T04:00:32;10.20;99.90
9987;DHT22;5033;46.310;11.214;2024-03-23T04:02:58;10.20;99.90
9987;DHT22;5033;46.310;11.214;2024-03-23T04:05:25;10.20;99.90
9987;DHT22;5033;46.310;11.214;2024-03-23T04:07:52;10.20;99.90
9987;DHT22;5033;46.310;11.214;2024-03-23T04:10:19;10.20;99.90
9987;DHT22;5033;46.310;11.214;2024-03-23T04:12:45;10.20;99.90
9987;DHT22;5033;46.310;11.214;2024-03-23T04:15:12;10.20;99.90
9987;DHT22;5033;46.310;11.214;2024-03-23T04:17:39;10.20;99.90
9987;DHT22;5033;46.310;11.214;2024-03-23T04:20:09;10.20;99.90
9987;DHT22;5033;46.310;11.214;2024-03-23T04:22:36;10.10;99.90
9987;DHT22;5033;46.310;11.214;2024-03-23T04:25:06;10.10;99.90
9987;DHT22;5033;46.310;11.214;2024-03-23T04:27:32;10.10;99.90
9987;DHT22;5033;46.310;11.214;2024-03-23T04:29:59;10.10;99.90
9987;DHT22;5033;46.310;11.214;2024-03-23T04:32:26;10.10;99.90
9987;DHT22;5033;46.310;11.214;2024-03-23T04:34:54;10.10;99.90
9987;DHT22;5033;46.310;11.214;2024-03-23T04:37:21;10.00;99.90
9987;DHT22;5033;46.310;11.214;2024-03-23T04:39:49;10.10;99.90
9987;DHT22;5033;46.310;11.214;2024-03-23T04:42:17;10.00;99.90
9987;DHT22;5033;46.310;11.214;2024-03-23T04:44:44;10.00;99.90
9987;DHT22;5033;46.310;11.214;2024-03-23T04:47:11;10.10;99.90
9987;DHT22;5033;46.310;11.214;2024-03-23T04:49:38;10.00;99.90
9987;DHT22;5033;46.310;11.214;2024-03-23T04:52:05;10.00;99.90
9987;DHT22;5033;46.310;11.214;2024-03-23T04:54:32;10.00;99.90
9987;DHT22;5033;46.310;11.214;2024-03-23T04:56:59;9.90;99.90
9987;DHT22;5033;46.310;11.214;2024-03-23T04:59:27;9.90;99.90
9987;DHT22;5033;46.310;11.214;2024-03-23T05:01:54;9.90;99.90
9987;DHT22;5033;46.310;11.214;2024-03-23T05:04:20;9.90;99.90
9987;DHT22;5033;46.310;11.214;2024-03-23T05:06:46;9.90;99.90
9987;DHT22;5033;46.310;11.214;2024-03-23T05:09:13;9.90;99.90
9987;DHT22;5033;46.310;11.214;2024-03-23T05:11:39;9.90;99.90
9987;DHT22;5033;46.310;11.214;2024-03-23T05:14:07;9.80;99.90
9987;DHT22;5033;46.310;11.214;2024-03-23T05:16:34;9.80;99.90
9987;DHT22;5033;46.310;11.214;2024-03-23T05:19:01;9.80;99.90
9987;DHT22;5033;46.310;11.214;2024-03-23T05:21:27;9.80;99.90
9987;DHT22;5033;46.310;11.214;2024-03-23T05:23:55;9.80;99.90
9987;DHT22;5033;46.310;11.214;2024-03-23T05:26:24;9.80;99.90
9987;DHT22;5033;46.310;11.214;2024-03-23T05:28:51;9.80;99.90
9987;DHT22;5033;46.310;11.214;2024-03-23T05:31:23;9.80;99.90
9987;DHT22;5033;46.310;11.214;2024-03-23T05:33:51;9.80;99.90
9987;DHT22;5033;46.310;11.214;2024-03-23T05:36:18;9.80;99.90
9987;DHT22;5033;46.310;11.214;2024-03-23T05:38:45;9.80;99.90
9987;DHT22;5033;46.310;11.214;2024-03-23T05:41:11;9.80;99.90
9987;DHT22;5033;46.310;11.214;2024-03-23T05:43:38;9.80;99.90
9987;DHT22;5033;46.310;11.214;2024-03-23T05:46:04;9.90;99.90
9987;DHT22;5033;46.310;11.214;2024-03-23T05:48:31;10.00;99.90
9987;DHT22;5033;46.310;11.214;2024-03-23T05:50:59;10.00;99.90
9987;DHT22;5033;46.310;11.214;2024-03-23T05:53:26;10.10;99.90
9987;DHT22;5033;46.310;11.214;2024-03-23T05:56:01;10.20;99.90
9987;DHT22;5033;46.310;11.214;2024-03-23T05:58:30;10.30;99.90
9987;DHT22;5033;46.310;11.214;2024-03-23T06:01:00;10.60;99.90
9987;DHT22;5033;46.310;11.214;2024-03-23T06:03:28;11.00;99.90
9987;DHT22;5033;46.310;11.214;2024-03-23T06:05:55;11.30;99.90
9987;DHT22;5033;46.310;11.214;2024-03-23T06:08:23;11.60;99.90
9987;DHT22;5033;46.310;11.214;2024-03-23T06:10:50;11.80;99.90
9987;DHT22;5033;46.310;11.214;2024-03-23T06:13:17;11.90;99.90
9987;DHT22;5033;46.310;11.214;2024-03-23T06:15:43;12.10;99.90
9987;DHT22;5033;46.310;11.214;2024-03-23T06:18:12;12.20;99.90
9987;DHT22;5033;46.310;11.214;2024-03-23T06:20:38;12.20;99.90
9987;DHT22;5033;46.310;11.214;2024-03-23T06:23:04;12.10;99.90
9987;DHT22;5033;46.310;11.214;2024-03-23T06:25:32;12.10;99.90
9987;DHT22;5033;46.310;11.214;2024-03-23T06:27:59;12.20;99.90
9987;DHT22;5033;46.310;11.214;2024-03-23T06:30:27;12.50;99.90
9987;DHT22;5033;46.310;11.214;2024-03-23T06:32:55;12.80;99.90
9987;DHT22;5033;46.310;11.214;2024-03-23T06:35:21;13.20;99.90
9987;DHT22;5033;46.310;11.214;2024-03-23T06:37:48;13.40;99.90
9987;DHT22;5033;46.310;11.214;2024-03-23T06:40:14;13.70;99.90
9987;DHT22;5033;46.310;11.214;2024-03-23T06:42:42;13.80;99.90
9987;DHT22;5033;46.310;11.214;2024-03-23T06:45:09;13.80;99.90
9987;DHT22;5033;46.310;11.214;2024-03-23T06:47:36;14.00;99.90
9987;DHT22;5033;46.310;11.214;2024-03-23T06:50:03;14.20;99.90
9987;DHT22;5033;46.310;11.214;2024-03-23T06:52:30;14.30;99.90
9987;DHT22;5033;46.310;11.214;2024-03-23T06:54:57;14.00;99.90
9987;DHT22;5033;46.310;11.214;2024-03-23T06:57:24;13.70;99.90
9987;DHT22;5033;46.310;11.214;2024-03-23T06:59:51;13.50;99.90
9987;DHT22;5033;46.310;11.214;2024-03-23T07:02:18;13.20;99.90
9987;DHT22;5033;46.310;11.214;2024-03-23T07:04:44;13.00;99.90
9987;DHT22;5033;46.310;11.214;2024-03-23T07:07:11;12.90;99.90
9987;DHT22;5033;46.310;11.214;2024-03-23T07:09:37;12.80;99.90
9987;DHT22;5033;46.310;11.214;2024-03-23T07:12:05;12.60;99.90
9987;DHT22;5033;46.310;11.214;2024-03-23T07:14:31;12.50;99.90
9987;DHT22;5033;46.310;11.214;2024-03-23T07:16:59;12.30;99.90
9987;DHT22;5033;46.310;11.214;2024-03-23T07:19:25;12.10;99.90
9987;DHT22;5033;46.310;11.214;2024-03-23T07:21:53;12.00;99.90
9987;DHT22;5033;46.310;11.214;2024-03-23T07:24:19;12.00;99.90
9987;DHT22;5033;46.310;11.214;2024-03-23T07:26:46;12.00;99.90
9987;DHT22;5033;46.310;11.214;2024-03-23T07:29:12;12.00;99.90
9987;DHT22;5033;46.310;11.214;2024-03-23T07:31:40;11.90;99.90
9987;DHT22;5033;46.310;11.214;2024-03-23T07:34:08;11.80;99.90
9987;DHT22;5033;46.310;11.214;2024-03-23T07:36:35;11.90;99.90
9987;DHT22;5033;46.310;11.214;2024-03-23T07:39:01;11.90;99.90
9987;DHT22;5033;46.310;11.214;2024-03-23T07:41:29;12.00;99.90
9987;DHT22;5033;46.310;11.214;2024-03-23T07:43:56;12.00;99.90
9987;DHT22;5033;46.310;11.214;2024-03-23T07:46:23;12.10;99.90
9987;DHT22;5033;46.310;11.214;2024-03-23T07:48:50;12.10;99.90
9987;DHT22;5033;46.310;11.214;2024-03-23T07:51:21;12.20;99.90
9987;DHT22;5033;46.310;11.214;2024-03-23T07:53:48;12.30;99.90
9987;DHT22;5033;46.310;11.214;2024-03-23T07:56:16;12.50;99.90
9987;DHT22;5033;46.310;11.214;2024-03-23T07:58:43;12.60;99.90
9987;DHT22;5033;46.310;11.214;2024-03-23T08:01:11;12.70;99.90
9987;DHT22;5033;46.310;11.214;2024-03-23T08:03:38;12.80;99.90
9987;DHT22;5033;46.310;11.214;2024-03-23T08:06:09;12.80;99.90
9987;DHT22;5033;46.310;11.214;2024-03-23T08:08:37;12.80;99.90
9987;DHT22;5033;46.310;11.214;2024-03-23T08:11:05;12.70;99.90
9987;DHT22;5033;46.310;11.214;2024-03-23T08:13:31;12.70;99.90
9987;DHT22;5033;46.310;11.214;2024-03-23T08:15:58;12.80;99.90
9987;DHT22;5033;46.310;11.214;2024-03-23T08:18:25;13.10;99.90
9987;DHT22;5033;46.310;11.214;2024-03-23T08:20:56;13.60;99.90
9987;DHT22;5033;46.310;11.214;2024-03-23T08:23:22;13.90;99.90
9987;DHT22;5033;46.310;11.214;2024-03-23T08:25:51;14.10;99.90
9987;DHT22;5033;46.310;11.214;2024-03-23T08:28:18;14.30;99.90
9987;DHT22;5033;46.310;11.214;2024-03-23T08:30:44;14.50;99.90
9987;DHT22;5033;46.310;11.214;2024-03-23T08:33:11;14.80;99.90
9987;DHT22;5033;46.310;11.214;2024-03-23T08:35:37;14.90;99.90
9987;DHT22;5033;46.310;11.214;2024-03-23T08:38:04;14.90;99.90
9987;DHT22;5033;46.310;11.214;2024-03-23T08:40:30;14.60;99.90
9987;DHT22;5033;46.310;11.214;2024-03-23T08:42:58;14.40;99.90
9987;DHT22;5033;46.310;11.214;2024-03-23T08:45:24;14.40;99.90
9987;DHT22;5033;46.310;11.214;2024-03-23T08:47:51;14.40;99.90
9987;DHT22;5033;46.310;11.214;2024-03-23T08:50:18;14.40;99.90
9987;DHT22;5033;46.310;11.214;2024-03-23T08:52:44;14.30;99.90
9987;DHT22;5033;46.310;11.214;2024-03-23T08:55:10;14.30;99.90
9987;DHT22;5033;46.310;11.214;2024-03-23T08:57:37;14.60;99.90
9987;DHT22;5033;46.310;11.214;2024-03-23T09:00:06;14.90;99.90
9987;DHT22;5033;46.310;11.214;2024-03-23T09:02:34;15.40;99.90
9987;DHT22;5033;46.310;11.214;2024-03-23T09:05:00;15.70;99.90
9987;DHT22;5033;46.310;11.214;2024-03-23T09:07:30;15.60;99.90
9987;DHT22;5033;46.310;11.214;2024-03-23T09:09:56;15.40;99.90
9987;DHT22;5033;46.310;11.214;2024-03-23T09:12:23;15.20;99.90
9987;DHT22;5033;46.310;11.214;2024-03-23T09:14:49;15.10;99.90
9987;DHT22;5033;46.310;11.214;2024-03-23T09:17:18;14.90;99.90
9987;DHT22;5033;46.310;11.214;2024-03-23T09:19:43;14.70;99.90
9987;DHT22;5033;46.310;11.214;2024-03-23T09:22:10;14.50;99.90
9987;DHT22;5033;46.310;11.214;2024-03-23T09:24:36;14.30;99.90
9987;DHT22;5033;46.310;11.214;2024-03-23T09:27:05;14.20;99.90
9987;DHT22;5033;46.310;11.214;2024-03-23T09:29:31;14.10;99.90
9987;DHT22;5033;46.310;11.214;2024-03-23T09:31:58;14.10;99.90
9987;DHT22;5033;46.310;11.214;2024-03-23T09:34:25;14.10;99.90
9987;DHT22;5033;46.310;11.214;2024-03-23T09:36:52;14.10;99.90
9987;DHT22;5033;46.310;11.214;2024-03-23T09:39:18;14.10;99.90
9987;DHT22;5033;46.310;11.214;2024-03-23T09:41:45;14.20;99.90
9987;DHT22;5033;46.310;11.214;2024-03-23T09:44:11;14.20;99.90
9987;DHT22;5033;46.310;11.214;2024-03-23T09:46:38;14.30;99.90
9987;DHT22;5033;46.310;11.214;2024-03-23T09:49:06;14.30;99.90
9987;DHT22;5033;46.310;11.214;2024-03-23T09:51:36;14.40;99.90
9987;DHT22;5033;46.310;11.214;2024-03-23T09:54:03;14.50;99.90
9987;DHT22;5033;46.310;11.214;2024-03-23T09:56:30;14.40;99.90
9987;DHT22;5033;46.310;11.214;2024-03-23T09:59:01;14.50;99.90
9987;DHT22;5033;46.310;11.214;2024-03-23T10:01:29;14.70;99.90
9987;DHT22;5033;46.310;11.214;2024-03-23T10:03:55;14.90;99.90
9987;DHT22;5033;46.310;11.214;2024-03-23T10:06:23;15.00;99.90
9987;DHT22;5033;46.310;11.214;2024-03-23T10:08:52;15.00;99.90
9987;DHT22;5033;46.310;11.214;2024-03-23T10:11:20;14.70;99.90
9987;DHT22;5033;46.310;11.214;2024-03-23T10:13:47;14.60;99.90
9987;DHT22;5033;46.310;11.214;2024-03-23T10:16:21;14.50;99.90
9987;DHT22;5033;46.310;11.214;2024-03-23T10:18:48;14.40;99.90
9987;DHT22;5033;46.310;11.214;2024-03-23T10:21:15;14.30;99.90
9987;DHT22;5033;46.310;11.214;2024-03-23T10:23:42;14.40;99.90
9987;DHT22;5033;46.310;11.214;2024-03-23T10:26:18;14.70;99.90
9987;DHT22;5033;46.310;11.214;2024-03-23T10:28:54;15.30;99.90
9987;DHT22;5033;46.310;11.214;2024-03-23T10:31:20;16.10;99.90
9987;DHT22;5033;46.310;11.214;2024-03-23T10:33:48;16.70;99.90
9987;DHT22;5033;46.310;11.214;2024-03-23T10:36:14;17.00;99.90
9987;DHT22;5033;46.310;11.214;2024-03-23T10:38:42;17.50;99.90
9987;DHT22;5033;46.310;11.214;2024-03-23T10:41:09;17.60;99.90
9987;DHT22;5033;46.310;11.214;2024-03-23T10:43:38;18.10;99.90
9987;DHT22;5033;46.310;11.214;2024-03-23T10:46:04;18.50;99.90
9987;DHT22;5033;46.310;11.214;2024-03-23T10:48:32;18.50;99.90
9987;DHT22;5033;46.310;11.214;2024-03-23T10:50:58;18.60;99.90
9987;DHT22;5033;46.310;11.214;2024-03-23T10:53:26;18.70;99.90
9987;DHT22;5033;46.310;11.214;2024-03-23T10:55:54;18.80;99.90
9987;DHT22;5033;46.310;11.214;2024-03-23T10:58:26;18.90;99.90
9987;DHT22;5033;46.310;11.214;2024-03-23T11:00:54;19.10;99.90
9987;DHT22;5033;46.310;11.214;2024-03-23T11:03:31;19.20;99.90
9987;DHT22;5033;46.310;11.214;2024-03-23T11:05:58;19.40;99.90
9987;DHT22;5033;46.310;11.214;2024-03-23T11:08:35;19.40;99.90
9987;DHT22;5033;46.310;11.214;2024-03-23T11:11:28;19.50;99.90
9987;DHT22;5033;46.310;11.214;2024-03-23T11:13:58;19.30;99.90
9987;DHT22;5033;46.310;11.214;2024-03-23T11:16:26;19.30;99.90
9987;DHT22;5033;46.310;11.214;2024-03-23T11:19:35;19.30;99.90
9987;DHT22;5033;46.310;11.214;2024-03-23T11:22:02;19.40;99.90
9987;DHT22;5033;46.310;11.214;2024-03-23T11:24:30;19.50;99.90
9987;DHT22;5033;46.310;11.214;2024-03-23T11:26:56;19.50;99.90
9987;DHT22;5033;46.310;11.214;2024-03-23T11:29:26;19.50;99.90
9987;DHT22;5033;46.310;11.214;2024-03-23T11:31:53;19.80;99.90
9987;DHT22;5033;46.310;11.214;2024-03-23T11:34:20;19.90;99.90
9987;DHT22;5033;46.310;11.214;2024-03-23T11:36:47;20.00;99.90
9987;DHT22;5033;46.310;11.214;2024-03-23T11:39:16;19.90;99.90
9987;DHT22;5033;46.310;11.214;2024-03-23T11:41:47;20.20;99.90
9987;DHT22;5033;46.310;11.214;2024-03-23T11:44:17;20.20;99.90
9987;DHT22;5033;46.310;11.214;2024-03-23T11:46:44;19.90;99.90
9987;DHT22;5033;46.310;11.214;2024-03-23T11:49:22;19.50;99.90
9987;DHT22;5033;46.310;11.214;2024-03-23T11:51:48;19.20;99.90
9987;DHT22;5033;46.310;11.214;2024-03-23T11:54:16;19.40;99.90
9987;DHT22;5033;46.310;11.214;2024-03-23T11:56:54;19.70;99.90
9987;DHT22;5033;46.310;11.214;2024-03-23T11:59:31;20.20;99.90
9987;DHT22;5033;46.310;11.214;2024-03-23T12:01:57;20.50;99.90
9987;DHT22;5033;46.310;11.214;2024-03-23T12:04:27;20.40;99.90
9987;DHT22;5033;46.310;11.214;2024-03-23T12:07:14;20.10;99.90
9987;DHT22;5033;46.310;11.214;2024-03-23T12:09:41;19.80;99.90
9987;DHT22;5033;46.310;11.214;2024-03-23T12:12:10;19.50;99.90
9987;DHT22;5033;46.310;11.214;2024-03-23T12:14:37;19.00;99.90
9987;DHT22;5033;46.310;11.214;2024-03-23T12:17:10;18.70;99.90
9987;DHT22;5033;46.310;11.214;2024-03-23T12:19:39;18.30;99.90
9987;DHT22;5033;46.310;11.214;2024-03-23T12:22:07;17.90;99.90
9987;DHT22;5033;46.310;11.214;2024-03-23T12:24:34;18.00;99.90
9987;DHT22;5033;46.310;11.214;2024-03-23T12:27:01;18.30;99.90
9987;DHT22;5033;46.310;11.214;2024-03-23T12:29:32;18.50;99.90
9987;DHT22;5033;46.310;11.214;2024-03-23T12:31:59;18.50;99.90
9987;DHT22;5033;46.310;11.214;2024-03-23T12:34:26;18.60;99.90
9987;DHT22;5033;46.310;11.214;2024-03-23T12:36:54;18.70;99.90
9987;DHT22;5033;46.310;11.214;2024-03-23T12:39:21;18.90;99.90
9987;DHT22;5033;46.310;11.214;2024-03-23T12:41:47;19.40;99.90
9987;DHT22;5033;46.310;11.214;2024-03-23T12:44:14;19.70;99.90
9987;DHT22;5033;46.310;11.214;2024-03-23T12:46:41;19.90;99.90
9987;DHT22;5033;46.310;11.214;2024-03-23T12:49:08;20.20;99.90
9987;DHT22;5033;46.310;11.214;2024-03-23T12:51:34;20.30;99.90
9987;DHT22;5033;46.310;11.214;2024-03-23T12:54:03;20.30;99.90
9987;DHT22;5033;46.310;11.214;2024-03-23T12:56:29;20.30;99.90
9987;DHT22;5033;46.310;11.214;2024-03-23T12:58:56;20.00;99.90
9987;DHT22;5033;46.310;11.214;2024-03-23T13:01:23;20.10;99.90
9987;DHT22;5033;46.310;11.214;2024-03-23T13:03:50;20.00;99.90
9987;DHT22;5033;46.310;11.214;2024-03-23T13:06:16;19.70;99.90
9987;DHT22;5033;46.310;11.214;2024-03-23T13:08:44;19.40;99.90
9987;DHT22;5033;46.310;11.214;2024-03-23T13:11:12;19.60;99.90
9987;DHT22;5033;46.310;11.214;2024-03-23T13:13:39;19.90;99.90
9987;DHT22;5033;46.310;11.214;2024-03-23T13:16:06;19.60;99.90
9987;DHT22;5033;46.310;11.214;2024-03-23T13:18:33;19.30;99.90
9987;DHT22;5033;46.310;11.214;2024-03-23T13:20:59;19.00;99.90
9987;DHT22;5033;46.310;11.214;2024-03-23T13:23:26;19.00;99.90
9987;DHT22;5033;46.310;11.214;2024-03-23T13:25:52;18.70;99.90
9987;DHT22;5033;46.310;11.214;2024-03-23T13:28:21;18.50;99.90
9987;DHT22;5033;46.310;11.214;2024-03-23T13:30:51;18.10;99.90
9987;DHT22;5033;46.310;11.214;2024-03-23T13:33:18;17.80;99.90
9987;DHT22;5033;46.310;11.214;2024-03-23T13:35:51;17.60;99.90
9987;DHT22;5033;46.310;11.214;2024-03-23T13:38:18;17.50;99.90
9987;DHT22;5033;46.310;11.214;2024-03-23T13:40:51;17.50;99.90
9987;DHT22;5033;46.310;11.214;2024-03-23T13:43:18;17.50;99.90
9987;DHT22;5033;46.310;11.214;2024-03-23T13:45:46;17.70;99.90
9987;DHT22;5033;46.310;11.214;2024-03-23T13:48:15;17.60;99.90
9987;DHT22;5033;46.310;11.214;2024-03-23T13:50:41;17.50;99.90
9987;DHT22;5033;46.310;11.214;2024-03-23T13:53:08;17.30;99.90
9987;DHT22;5033;46.310;11.214;2024-03-23T13:55:34;17.00;99.90
9987;DHT22;5033;46.310;11.214;2024-03-23T13:58:01;16.80;99.90
9987;DHT22;5033;46.310;11.214;2024-03-23T14:00:27;16.60;99.90
9987;DHT22;5033;46.310;11.214;2024-03-23T14:02:56;16.60;99.90
9987;DHT22;5033;46.310;11.214;2024-03-23T14:05:21;16.60;99.90
9987;DHT22;5033;46.310;11.214;2024-03-23T14:07:50;16.50;99.90
9987;DHT22;5033;46.310;11.214;2024-03-23T14:10:16;16.20;99.90
9987;DHT22;5033;46.310;11.214;2024-03-23T14:12:43;16.00;99.90
9987;DHT22;5033;46.310;11.214;2024-03-23T14:15:09;15.90;99.90
9987;DHT22;5033;46.310;11.214;2024-03-23T14:17:36;15.80;99.90
9987;DHT22;5033;46.310;11.214;2024-03-23T14:20:04;15.60;99.90
9987;DHT22;5033;46.310;11.214;2024-03-23T14:22:31;15.40;99.90
9987;DHT22;5033;46.310;11.214;2024-03-23T14:24:57;15.30;99.90
9987;DHT22;5033;46.310;11.214;2024-03-23T14:27:24;15.20;99.90
9987;DHT22;5033;46.310;11.214;2024-03-23T14:29:50;15.10;99.90
9987;DHT22;5033;46.310;11.214;2024-03-23T14:32:17;15.00;99.90
9987;DHT22;5033;46.310;11.214;2024-03-23T14:34:43;15.00;99.90
9987;DHT22;5033;46.310;11.214;2024-03-23T14:37:11;14.90;99.90
9987;DHT22;5033;46.310;11.214;2024-03-23T14:39:37;14.80;99.90
9987;DHT22;5033;46.310;11.214;2024-03-23T14:42:07;14.70;99.90
9987;DHT22;5033;46.310;11.214;2024-03-23T14:44:34;14.20;99.90
9987;DHT22;5033;46.310;11.214;2024-03-23T14:47:01;13.30;99.90
9987;DHT22;5033;46.310;11.214;2024-03-23T14:49:27;12.30;99.90
9987;DHT22;5033;46.310;11.214;2024-03-23T14:51:54;11.40;99.90
9987;DHT22;5033;46.310;11.214;2024-03-23T14:54:21;11.20;99.90
9987;DHT22;5033;46.310;11.214;2024-03-23T14:56:48;11.20;99.90
9987;DHT22;5033;46.310;11.214;2024-03-23T14:59:14;11.40;99.90
9987;DHT22;5033;46.310;11.214;2024-03-23T15:01:41;11.70;99.90
9987;DHT22;5033;46.310;11.214;2024-03-23T15:04:07;12.00;99.90
9987;DHT22;5033;46.310;11.214;2024-03-23T15:06:34;12.20;99.90
9987;DHT22;5033;46.310;11.214;2024-03-23T15:09:00;12.10;99.90
9987;DHT22;5033;46.310;11.214;2024-03-23T15:11:28;12.00;99.90
9987;DHT22;5033;46.310;11.214;2024-03-23T15:13:54;11.90;99.90
9987;DHT22;5033;46.310;11.214;2024-03-23T15:16:21;12.00;99.90
9987;DHT22;5033;46.310;11.214;2024-03-23T15:18:47;12.20;99.90
9987;DHT22;5033;46.310;11.214;2024-03-23T15:21:14;12.30;99.90
9987;DHT22;5033;46.310;11.214;2024-03-23T15:23:45;12.40;99.90
9987;DHT22;5033;46.310;11.214;2024-03-23T15:26:13;12.30;99.90
9987;DHT22;5033;46.310;11.214;2024-03-23T15:28:40;12.10;99.90
9987;DHT22;5033;46.310;11.214;2024-03-23T15:31:28;11.90;99.90
9987;DHT22;5033;46.310;11.214;2024-03-23T15:33:54;11.70;99.90
9987;DHT22;5033;46.310;11.214;2024-03-23T15:36:21;11.60;99.90
9987;DHT22;5033;46.310;11.214;2024-03-23T15:38:47;11.60;99.90
9987;DHT22;5033;46.310;11.214;2024-03-23T15:41:14;11.60;99.90
9987;DHT22;5033;46.310;11.214;2024-03-23T15:43:42;11.60;99.90
9987;DHT22;5033;46.310;11.214;2024-03-23T15:46:09;11.60;99.90
9987;DHT22;5033;46.310;11.214;2024-03-23T15:48:36;11.70;99.90
9987;DHT22;5033;46.310;11.214;2024-03-23T15:51:03;11.60;99.90
9987;DHT22;5033;46.310;11.214;2024-03-23T15:53:30;11.80;99.90
9987;DHT22;5033;46.310;11.214;2024-03-23T15:55:58;11.90;99.90
9987;DHT22;5033;46.310;11.214;2024-03-23T15:58:25;11.80;99.90
9987;DHT22;5033;46.310;11.214;2024-03-23T16:00:58;11.60;99.90
9987;DHT22;5033;46.310;11.214;2024-03-23T16:03:25;11.30;99.90
9987;DHT22;5033;46.310;11.214;2024-03-23T16:05:52;11.10;99.90
9987;DHT22;5033;46.310;11.214;2024-03-23T16:08:18;10.90;99.90
9987;DHT22;5033;46.310;11.214;2024-03-23T16:10:45;10.80;99.90
9987;DHT22;5033;46.310;11.214;2024-03-23T16:13:11;10.70;99.90
9987;DHT22;5033;46.310;11.214;2024-03-23T16:15:38;10.70;99.90
9987;DHT22;5033;46.310;11.214;2024-03-23T16:18:06;10.70;99.90
9987;DHT22;5033;46.310;11.214;2024-03-23T16:20:33;10.70;99.90
9987;DHT22;5033;46.310;11.214;2024-03-23T16:22:59;10.80;99.90
9987;DHT22;5033;46.310;11.214;2024-03-23T16:25:26;10.80;99.90
9987;DHT22;5033;46.310;11.214;2024-03-23T16:27:52;10.80;99.90
9987;DHT22;5033;46.310;11.214;2024-03-23T16:30:19;10.90;99.90
9987;DHT22;5033;46.310;11.214;2024-03-23T16:32:46;11.10;99.90
9987;DHT22;5033;46.310;11.214;2024-03-23T16:35:14;11.20;99.90
9987;DHT22;5033;46.310;11.214;2024-03-23T16:37:41;11.30;99.90
9987;DHT22;5033;46.310;11.214;2024-03-23T16:40:09;11.40;99.90
9987;DHT22;5033;46.310;11.214;2024-03-23T16:42:35;11.30;99.90